sensor_id;sensor_type;location;lat;lon;timestamp;temperature;humidity
37518;DHT22;23366;52.498;13.446;2023-04-01T00:01:32;9.80;99.90
37518;DHT22;23366;52.498;13.446;2023-04-01T00:03:58;9.80;99.90
37518;DHT22;23366;52.498;13.446;2023-04-01T00:06:24;9.80;99.90
37518;DHT22;23366;52.498;13.446;2023-04-01T00:08:50;9.80;99.90
37518;DHT22;23366;52.498;13.446;2023-04-01T00:11:16;9.80;99.90
37518;DHT22;23366;52.498;13.446;2023-04-01T00:13:42;9.80;99.90
37518;DHT22;23366;52.498;13.446;2023-04-01T00:16:08;9.80;99.90
37518;DHT22;23366;52.498;13.446;2023-04-01T00:18:33;9.70;99.90
37518;DHT22;23366;52.498;13.446;2023-04-01T00:20:59;9.70;99.90
37518;DHT22;23366;52.498;13.446;2023-04-01T00:23:24;9.80;99.90
37518;DHT22;23366;52.498;13.446;2023-04-01T00:25:50;9.80;99.90
37518;DHT22;23366;52.498;13.446;2023-04-01T00:28:17;9.80;99.90
37518;DHT22;23366;52.498;13.446;2023-04-01T00:30:43;9.80;99.90
37518;DHT22;23366;52.498;13.446;2023-04-01T00:33:09;9.80;99.90
37518;DHT22;23366;52.498;13.446;2023-04-01T00:35:35;9.80;99.90
37518;DHT22;23366;52.498;13.446;2023-04-01T00:38:00;9.80;99.90
37518;DHT22;23366;52.498;13.446;2023-04-01T00:40:30;9.80;99.90
37518;DHT22;23366;52.498;13.446;2023-04-01T00:42:56;9.80;99.90
37518;DHT22;23366;52.498;13.446;2023-04-01T00:45:34;9.80;99.90
37518;DHT22;23366;52.498;13.446;2023-04-01T00:48:08;9.90;99.90
37518;DHT22;23366;52.498;13.446;2023-04-01T00:50:37;9.90;99.90
37518;DHT22;23366;52.498;13.446;2023-04-01T00:53:05;9.80;99.90
37518;DHT22;23366;52.498;13.446;2023-04-01T00:55:34;9.90;99.90
37518;DHT22;23366;52.498;13.446;2023-04-01T00:58:03;9.90;99.90
37518;DHT22;23366;52.498;13.446;2023-04-01T01:00:30;9.80;99.90
37518;DHT22;23366;52.498;13.446;2023-04-01T01:02:57;9.90;99.90
37518;DHT22;23366;52.498;13.446;2023-04-01T01:05:44;9.80;99.90
37518;DHT22;23366;52.498;13.446;2023-04-01T01:08:22;9.80;99.90
37518;DHT22;23366;52.498;13.446;2023-04-01T01:10:52;9.90;99.90
37518;DHT22;23366;52.498;13.446;2023-04-01T01:13:48;9.90;99.90
37518;DHT22;23366;52.498;13.446;2023-04-01T01:16:25;9.90;99.90
37518;DHT22;23366;52.498;13.446;2023-04-01T01:19:08;9.90;99.90
37518;DHT22;23366;52.498;13.446;2023-04-01T01:21:57;9.90;99.90
37518;DHT22;23366;52.498;13.446;2023-04-01T01:27:17;9.90;99.90
37518;DHT22;23366;52.498;13.446;2023-04-01T01:35:31;9.90;99.90
37518;DHT22;23366;52.498;13.446;2023-04-01T01:38:01;9.90;99.90
37518;DHT22;23366;52.498;13.446;2023-04-01T01:40:29;9.80;99.90
37518;DHT22;23366;52.498;13.446;2023-04-01T01:42:59;9.90;99.90
37518;DHT22;23366;52.498;13.446;2023-04-01T01:45:26;9.90;99.90
37518;DHT22;23366;52.498;13.446;2023-04-01T01:47:53;9.90;99.90
37518;DHT22;23366;52.498;13.446;2023-04-01T01:50:21;9.90;99.90
37518;DHT22;23366;52.498;13.446;2023-04-01T01:52:47;9.90;99.90
37518;DHT22;23366;52.498;13.446;2023-04-01T01:55:37;9.90;99.90
37518;DHT22;23366;52.498;13.446;2023-04-01T01:58:13;9.90;99.90
37518;DHT22;23366;52.498;13.446;2023-04-01T02:00:41;9.90;99.90
37518;DHT22;23366;52.498;13.446;2023-04-01T02:03:09;9.90;99.90
37518;DHT22;23366;52.498;13.446;2023-04-01T02:05:35;10.00;99.90
37518;DHT22;23366;52.498;13.446;2023-04-01T02:08:06;9.90;99.90
37518;DHT22;23366;52.498;13.446;2023-04-01T02:10:34;9.90;99.90
37518;DHT22;23366;52.498;13.446;2023-04-01T02:13:05;10.00;99.90
37518;DHT22;23366;52.498;13.446;2023-04-01T02:15:37;9.90;99.90
37518;DHT22;23366;52.498;13.446;2023-04-01T02:18:03;9.90;99.90
37518;DHT22;23366;52.498;13.446;2023-04-01T02:20:30;9.90;99.90
37518;DHT22;23366;52.498;13.446;2023-04-01T02:22:56;9.90;99.90
37518;DHT22;23366;52.498;13.446;2023-04-01T02:25:30;9.90;99.90
37518;DHT22;23366;52.498;13.446;2023-04-01T02:27:59;9.90;99.90
37518;DHT22;23366;52.498;13.446;2023-04-01T02:30:26;9.90;99.90
37518;DHT22;23366;52.498;13.446;2023-04-01T02:32:53;9.90;99.90
37518;DHT22;23366;52.498;13.446;2023-04-01T02:35:19;9.90;99.90
37518;DHT22;23366;52.498;13.446;2023-04-01T02:37:46;10.00;99.90
37518;DHT22;23366;52.498;13.446;2023-04-01T02:40:14;10.00;99.90
37518;DHT22;23366;52.498;13.446;2023-04-01T02:42:40;10.00;99.90
37518;DHT22;23366;52.498;13.446;2023-04-01T02:45:07;10.00;99.90
37518;DHT22;23366;52.498;13.446;2023-04-01T02:47:32;10.00;99.90
37518;DHT22;23366;52.498;13.446;2023-04-01T02:49:58;10.00;99.90
37518;DHT22;23366;52.498;13.446;2023-04-01T02:52:24;9.90;99.90
37518;DHT22;23366;52.498;13.446;2023-04-01T02:54:50;10.00;99.90
37518;DHT22;23366;52.498;13.446;2023-04-01T02:57:16;9.90;99.90
37518;DHT22;23366;52.498;13.446;2023-04-01T02:59:41;9.90;99.90
37518;DHT22;23366;52.498;13.446;2023-04-01T03:02:07;9.90;99.90
37518;DHT22;23366;52.498;13.446;2023-04-01T03:04:32;9.90;99.90
37518;DHT22;23366;52.498;13.446;2023-04-01T03:06:58;9.90;99.90
37518;DHT22;23366;52.498;13.446;2023-04-01T03:09:24;9.90;99.90
37518;DHT22;23366;52.498;13.446;2023-04-01T03:11:49;9.90;99.90
37518;DHT22;23366;52.498;13.446;2023-04-01T03:14:15;9.80;99.90
37518;DHT22;23366;52.498;13.446;2023-04-01T03:16:40;9.80;99.90
37518;DHT22;23366;52.498;13.446;2023-04-01T03:19:06;9.90;99.90
37518;DHT22;23366;52.498;13.446;2023-04-01T03:21:32;9.80;99.90
37518;DHT22;23366;52.498;13.446;2023-04-01T03:23:58;9.80;99.90
37518;DHT22;23366;52.498;13.446;2023-04-01T03:26:24;9.80;99.90
37518;DHT22;23366;52.498;13.446;2023-04-01T03:28:51;9.80;99.90
37518;DHT22;23366;52.498;13.446;2023-04-01T03:31:17;9.90;99.90
37518;DHT22;23366;52.498;13.446;2023-04-01T03:33:43;9.90;99.90
37518;DHT22;23366;52.498;13.446;2023-04-01T03:36:08;9.90;99.90
37518;DHT22;23366;52.498;13.446;2023-04-01T03:38:35;9.90;99.90
37518;DHT22;23366;52.498;13.446;2023-04-01T03:41:00;9.90;99.90
37518;DHT22;23366;52.498;13.446;2023-04-01T03:43:26;10.00;99.90
37518;DHT22;23366;52.498;13.446;2023-04-01T03:45:52;9.90;99.90
37518;DHT22;23366;52.498;13.446;2023-04-01T03:48:20;9.90;99.90
37518;DHT22;23366;52.498;13.446;2023-04-01T03:50:46;9.90;99.90
37518;DHT22;23366;52.498;13.446;2023-04-01T03:53:12;9.90;99.90
37518;DHT22;23366;52.498;13.446;2023-04-01T03:55:38;9.90;99.90
37518;DHT22;23366;52.498;13.446;2023-04-01T03:58:05;9.90;99.90
37518;DHT22;23366;52.498;13.446;2023-04-01T04:00:31;9.90;99.90
37518;DHT22;23366;52.498;13.446;2023-04-01T04:02:57;9.70;99.90
37518;DHT22;23366;52.498;13.446;2023-04-01T04:05:24;9.90;99.90
37518;DHT22;23366;52.498;13.446;2023-04-01T04:07:50;9.90;99.90
37518;DHT22;23366;52.498;13.446;2023-04-01T04:10:16;9.90;99.90
37518;DHT22;23366;52.498;13.446;2023-04-01T04:12:42;9.90;99.90
37518;DHT22;23366;52.498;13.446;2023-04-01T04:15:08;10.00;99.90
37518;DHT22;23366;52.498;13.446;2023-04-01T04:17:33;9.90;99.90
37518;DHT22;23366;52.498;13.446;2023-04-01T04:19:59;9.90;99.90
37518;DHT22;23366;52.498;13.446;2023-04-01T04:22:24;9.90;99.90
37518;DHT22;23366;52.498;13.446;2023-04-01T04:24:51;10.00;99.90
37518;DHT22;23366;52.498;13.446;2023-04-01T04:27:16;9.90;99.90
37518;DHT22;23366;52.498;13.446;2023-04-01T04:29:42;9.90;99.90
37518;DHT22;23366;52.498;13.446;2023-04-01T04:32:08;9.90;99.90
37518;DHT22;23366;52.498;13.446;2023-04-01T04:34:33;9.90;99.90
37518;DHT22;23366;52.498;13.446;2023-04-01T04:36:59;9.90;99.90
37518;DHT22;23366;52.498;13.446;2023-04-01T04:39:25;9.90;99.90
37518;DHT22;23366;52.498;13.446;2023-04-01T04:41:50;9.90;99.90
37518;DHT22;23366;52.498;13.446;2023-04-01T04:44:16;10.00;99.90
37518;DHT22;23366;52.498;13.446;2023-04-01T04:46:41;9.90;99.90
37518;DHT22;23366;52.498;13.446;2023-04-01T04:49:07;9.90;99.90
37518;DHT22;23366;52.498;13.446;2023-04-01T04:51:32;9.90;99.90
37518;DHT22;23366;52.498;13.446;2023-04-01T04:54:05;9.90;99.90
37518;DHT22;23366;52.498;13.446;2023-04-01T04:56:31;9.90;99.90
37518;DHT22;23366;52.498;13.446;2023-04-01T04:58:57;10.00;99.90
37518;DHT22;23366;52.498;13.446;2023-04-01T05:01:23;10.00;99.90
37518;DHT22;23366;52.498;13.446;2023-04-01T05:03:49;10.00;99.90
37518;DHT22;23366;52.498;13.446;2023-04-01T05:06:15;10.00;99.90
37518;DHT22;23366;52.498;13.446;2023-04-01T05:08:42;10.00;99.90
37518;DHT22;23366;52.498;13.446;2023-04-01T05:11:13;10.10;99.90
37518;DHT22;23366;52.498;13.446;2023-04-01T05:13:40;10.10;99.90
37518;DHT22;23366;52.498;13.446;2023-04-01T05:16:14;10.10;99.90
37518;DHT22;23366;52.498;13.446;2023-04-01T05:18:40;10.10;99.90
37518;DHT22;23366;52.498;13.446;2023-04-01T05:21:08;10.10;99.90
37518;DHT22;23366;52.498;13.446;2023-04-01T05:23:34;10.10;99.90
37518;DHT22;23366;52.498;13.446;2023-04-01T05:26:18;10.10;99.90
37518;DHT22;23366;52.498;13.446;2023-04-01T05:28:43;10.10;99.90
37518;DHT22;23366;52.498;13.446;2023-04-01T05:31:18;10.10;99.90
37518;DHT22;23366;52.498;13.446;2023-04-01T05:33:51;10.00;99.90
37518;DHT22;23366;52.498;13.446;2023-04-01T05:36:16;10.10;99.90
37518;DHT22;23366;52.498;13.446;2023-04-01T05:38:42;10.00;99.90
37518;DHT22;23366;52.498;13.446;2023-04-01T05:41:09;10.10;99.90
37518;DHT22;23366;52.498;13.446;2023-04-01T05:43:39;10.10;99.90
37518;DHT22;23366;52.498;13.446;2023-04-01T05:46:04;10.10;99.90
37518;DHT22;23366;52.498;13.446;2023-04-01T05:48:30;10.10;99.90
37518;DHT22;23366;52.498;13.446;2023-04-01T05:50:56;10.10;99.90
37518;DHT22;23366;52.498;13.446;2023-04-01T05:53:21;10.10;99.90
37518;DHT22;23366;52.498;13.446;2023-04-01T05:55:47;10.10;99.90
37518;DHT22;23366;52.498;13.446;2023-04-01T05:58:13;10.10;99.90
37518;DHT22;23366;52.498;13.446;2023-04-01T06:00:38;10.10;99.90
37518;DHT22;23366;52.498;13.446;2023-04-01T06:03:04;10.20;99.90
37518;DHT22;23366;52.498;13.446;2023-04-01T06:05:42;10.20;99.90
37518;DHT22;23366;52.498;13.446;2023-04-01T06:08:14;10.20;99.90
37518;DHT22;23366;52.498;13.446;2023-04-01T06:11:04;10.20;99.90
37518;DHT22;23366;52.498;13.446;2023-04-01T06:19:27;10.10;99.90
37518;DHT22;23366;52.498;13.446;2023-04-01T06:24:49;10.20;99.90
37518;DHT22;23366;52.498;13.446;2023-04-01T06:33:08;10.20;99.90
37518;DHT22;23366;52.498;13.446;2023-04-01T06:44:16;10.20;99.90
37518;DHT22;23366;52.498;13.446;2023-04-01T06:46:44;10.30;99.90
37518;DHT22;23366;52.498;13.446;2023-04-01T06:52:19;10.30;99.90
37518;DHT22;23366;52.498;13.446;2023-04-01T06:54:58;10.30;99.90
37518;DHT22;23366;52.498;13.446;2023-04-01T06:57:31;10.30;99.90
37518;DHT22;23366;52.498;13.446;2023-04-01T07:00:00;10.30;99.90
37518;DHT22;23366;52.498;13.446;2023-04-01T07:02:37;10.30;99.90
37518;DHT22;23366;52.498;13.446;2023-04-01T07:05:05;10.30;99.90
37518;DHT22;23366;52.498;13.446;2023-04-01T07:07:50;10.30;99.90
37518;DHT22;23366;52.498;13.446;2023-04-01T07:13:36;10.40;99.90
37518;DHT22;23366;52.498;13.446;2023-04-01T07:18:52;10.50;99.90
37518;DHT22;23366;52.498;13.446;2023-04-01T07:21:30;10.40;99.90
37518;DHT22;23366;52.498;13.446;2023-04-01T07:24:04;10.40;99.90
37518;DHT22;23366;52.498;13.446;2023-04-01T07:26:31;10.40;99.90
37518;DHT22;23366;52.498;13.446;2023-04-01T07:28:57;10.50;99.90
37518;DHT22;23366;52.498;13.446;2023-04-01T07:36:57;10.50;99.90
37518;DHT22;23366;52.498;13.446;2023-04-01T07:42:44;10.60;99.90
37518;DHT22;23366;52.498;13.446;2023-04-01T07:45:30;10.60;99.90
37518;DHT22;23366;52.498;13.446;2023-04-01T07:48:24;10.70;99.90
37518;DHT22;23366;52.498;13.446;2023-04-01T07:51:03;10.80;99.90
37518;DHT22;23366;52.498;13.446;2023-04-01T07:53:41;10.80;99.90
37518;DHT22;23366;52.498;13.446;2023-04-01T07:56:32;10.80;99.90
37518;DHT22;23366;52.498;13.446;2023-04-01T08:01:52;10.80;99.90
37518;DHT22;23366;52.498;13.446;2023-04-01T08:04:41;10.80;99.90
37518;DHT22;23366;52.498;13.446;2023-04-01T08:07:18;10.80;99.90
37518;DHT22;23366;52.498;13.446;2023-04-01T08:09:59;10.90;99.90
37518;DHT22;23366;52.498;13.446;2023-04-01T08:12:42;10.90;99.90
37518;DHT22;23366;52.498;13.446;2023-04-01T08:15:26;11.00;99.90
37518;DHT22;23366;52.498;13.446;2023-04-01T08:17:55;11.00;99.90
37518;DHT22;23366;52.498;13.446;2023-04-01T08:20:37;11.00;99.90
37518;DHT22;23366;52.498;13.446;2023-04-01T08:25:52;10.90;99.90
37518;DHT22;23366;52.498;13.446;2023-04-01T08:28:29;10.80;99.90
37518;DHT22;23366;52.498;13.446;2023-04-01T08:31:05;10.70;99.90
37518;DHT22;23366;52.498;13.446;2023-04-01T08:33:33;10.50;99.90
37518;DHT22;23366;52.498;13.446;2023-04-01T08:36:22;10.20;99.90
37518;DHT22;23366;52.498;13.446;2023-04-01T08:39:04;10.00;99.90
37518;DHT22;23366;52.498;13.446;2023-04-01T08:42:07;9.90;99.90
37518;DHT22;23366;52.498;13.446;2023-04-01T08:45:04;9.70;99.90
37518;DHT22;23366;52.498;13.446;2023-04-01T08:50:19;9.60;99.90
37518;DHT22;23366;52.498;13.446;2023-04-01T08:53:00;9.70;99.90
37518;DHT22;23366;52.498;13.446;2023-04-01T09:01:34;9.70;99.90
37518;DHT22;23366;52.498;13.446;2023-04-01T09:04:47;9.80;99.90
37518;DHT22;23366;52.498;13.446;2023-04-01T09:07:39;9.80;99.90
37518;DHT22;23366;52.498;13.446;2023-04-01T09:16:13;10.10;99.90
37518;DHT22;23366;52.498;13.446;2023-04-01T09:21:45;10.00;99.90
37518;DHT22;23366;52.498;13.446;2023-04-01T09:27:09;9.70;99.90
37518;DHT22;23366;52.498;13.446;2023-04-01T09:34:54;9.70;99.90
37518;DHT22;23366;52.498;13.446;2023-04-01T09:37:34;9.70;99.90
37518;DHT22;23366;52.498;13.446;2023-04-01T09:53:36;9.80;99.90
37518;DHT22;23366;52.498;13.446;2023-04-01T09:56:24;9.70;99.90
37518;DHT22;23366;52.498;13.446;2023-04-01T10:14:17;9.50;99.90
37518;DHT22;23366;52.498;13.446;2023-04-01T10:27:45;9.50;99.90
37518;DHT22;23366;52.498;13.446;2023-04-01T10:33:19;9.40;99.90
37518;DHT22;23366;52.498;13.446;2023-04-01T10:44:55;9.20;99.90
37518;DHT22;23366;52.498;13.446;2023-04-01T10:47:48;9.20;99.90
37518;DHT22;23366;52.498;13.446;2023-04-01T10:53:07;9.30;99.90
37518;DHT22;23366;52.498;13.446;2023-04-01T10:58:57;9.30;99.90
37518;DHT22;23366;52.498;13.446;2023-04-01T11:01:54;9.40;99.90
37518;DHT22;23366;52.498;13.446;2023-04-01T11:08:00;9.30;99.90
37518;DHT22;23366;52.498;13.446;2023-04-01T11:11:51;9.00;99.90
37518;DHT22;23366;52.498;13.446;2023-04-01T11:14:00;8.90;99.90
37518;DHT22;23366;52.498;13.446;2023-04-01T11:16:48;8.90;99.90
37518;DHT22;23366;52.498;13.446;2023-04-01T11:25:09;8.80;99.90
37518;DHT22;23366;52.498;13.446;2023-04-01T11:28:08;8.70;99.90
37518;DHT22;23366;52.498;13.446;2023-04-01T11:37:06;8.80;99.90
37518;DHT22;23366;52.498;13.446;2023-04-01T11:40:05;8.80;99.90
37518;DHT22;23366;52.498;13.446;2023-04-01T11:48:19;8.80;99.90
37518;DHT22;23366;52.498;13.446;2023-04-01T11:51:19;8.70;99.90
37518;DHT22;23366;52.498;13.446;2023-04-01T11:54:13;8.70;99.90
37518;DHT22;23366;52.498;13.446;2023-04-01T11:56:59;8.70;99.90
37518;DHT22;23366;52.498;13.446;2023-04-01T12:00:10;8.50;99.90
37518;DHT22;23366;52.498;13.446;2023-04-01T12:03:45;8.60;99.90
37518;DHT22;23366;52.498;13.446;2023-04-01T12:05:54;8.50;99.90
37518;DHT22;23366;52.498;13.446;2023-04-01T12:14:27;8.50;99.90
37518;DHT22;23366;52.498;13.446;2023-04-01T12:17:02;8.50;99.90
37518;DHT22;23366;52.498;13.446;2023-04-01T12:20:15;8.40;99.90
37518;DHT22;23366;52.498;13.446;2023-04-01T12:22:49;8.40;99.90
37518;DHT22;23366;52.498;13.446;2023-04-01T12:34:44;8.20;99.90
37518;DHT22;23366;52.498;13.446;2023-04-01T12:40:00;8.50;99.90
37518;DHT22;23366;52.498;13.446;2023-04-01T12:48:16;8.30;99.90
37518;DHT22;23366;52.498;13.446;2023-04-01T12:56:44;8.40;99.90
37518;DHT22;23366;52.498;13.446;2023-04-01T13:02:35;8.50;99.90
37518;DHT22;23366;52.498;13.446;2023-04-01T13:05:22;8.40;99.90
37518;DHT22;23366;52.498;13.446;2023-04-01T13:07:56;8.30;99.90
37518;DHT22;23366;52.498;13.446;2023-04-01T13:13:39;8.00;99.90
37518;DHT22;23366;52.498;13.446;2023-04-01T13:16:19;8.00;99.90
37518;DHT22;23366;52.498;13.446;2023-04-01T13:19:21;7.90;99.90
37518;DHT22;23366;52.498;13.446;2023-04-01T13:22:07;7.90;99.90
37518;DHT22;23366;52.498;13.446;2023-04-01T13:24:52;7.90;99.90
37518;DHT22;23366;52.498;13.446;2023-04-01T13:33:17;7.90;99.90
37518;DHT22;23366;52.498;13.446;2023-04-01T13:35:57;7.90;99.90
37518;DHT22;23366;52.498;13.446;2023-04-01T13:38:48;8.00;99.90
37518;DHT22;23366;52.498;13.446;2023-04-01T13:44:22;8.00;99.90
37518;DHT22;23366;52.498;13.446;2023-04-01T13:53:06;7.90;99.90
37518;DHT22;23366;52.498;13.446;2023-04-01T14:02:17;7.90;99.90
37518;DHT22;23366;52.498;13.446;2023-04-01T14:04:56;7.90;99.90
37518;DHT22;23366;52.498;13.446;2023-04-01T14:13:18;7.90;99.90
37518;DHT22;23366;52.498;13.446;2023-04-01T14:16:07;7.90;99.90
37518;DHT22;23366;52.498;13.446;2023-04-01T14:21:21;7.90;99.90
37518;DHT22;23366;52.498;13.446;2023-04-01T14:24:03;7.90;99.90
37518;DHT22;23366;52.498;13.446;2023-04-01T14:27:06;7.80;99.90
37518;DHT22;23366;52.498;13.446;2023-04-01T14:32:16;7.70;99.90
37518;DHT22;23366;52.498;13.446;2023-04-01T14:41:02;7.80;99.90
37518;DHT22;23366;52.498;13.446;2023-04-01T14:43:42;7.60;99.90
37518;DHT22;23366;52.498;13.446;2023-04-01T14:49:30;7.50;99.90
37518;DHT22;23366;52.498;13.446;2023-04-01T14:52:14;7.50;99.90
37518;DHT22;23366;52.498;13.446;2023-04-01T14:54:44;7.50;99.90
37518;DHT22;23366;52.498;13.446;2023-04-01T14:57:10;7.40;99.90
37518;DHT22;23366;52.498;13.446;2023-04-01T14:59:46;7.40;99.90
37518;DHT22;23366;52.498;13.446;2023-04-01T15:08:23;7.40;99.90
37518;DHT22;23366;52.498;13.446;2023-04-01T15:19:15;7.30;99.90
37518;DHT22;23366;52.498;13.446;2023-04-01T15:21:57;7.40;99.90
37518;DHT22;23366;52.498;13.446;2023-04-01T15:24:41;7.20;99.90
37518;DHT22;23366;52.498;13.446;2023-04-01T15:27:21;7.10;99.90
37518;DHT22;23366;52.498;13.446;2023-04-01T15:33:02;7.00;99.90
37518;DHT22;23366;52.498;13.446;2023-04-01T15:35:49;7.00;99.90
37518;DHT22;23366;52.498;13.446;2023-04-01T15:38:33;7.00;99.90
37518;DHT22;23366;52.498;13.446;2023-04-01T15:43:49;6.90;99.90
37518;DHT22;23366;52.498;13.446;2023-04-01T16:06:17;6.80;99.90
37518;DHT22;23366;52.498;13.446;2023-04-01T16:11:48;6.80;99.90
37518;DHT22;23366;52.498;13.446;2023-04-01T16:17:49;6.60;99.90
37518;DHT22;23366;52.498;13.446;2023-04-01T16:20:49;6.50;99.90
37518;DHT22;23366;52.498;13.446;2023-04-01T16:26:27;6.40;99.90
37518;DHT22;23366;52.498;13.446;2023-04-01T16:31:42;6.30;99.90
37518;DHT22;23366;52.498;13.446;2023-04-01T16:34:14;6.30;99.90
37518;DHT22;23366;52.498;13.446;2023-04-01T16:36:53;6.30;99.90
37518;DHT22;23366;52.498;13.446;2023-04-01T16:45:26;6.30;99.90
37518;DHT22;23366;52.498;13.446;2023-04-01T16:48:45;6.20;99.90
37518;DHT22;23366;52.498;13.446;2023-04-01T16:51:13;6.20;99.90
37518;DHT22;23366;52.498;13.446;2023-04-01T16:54:02;6.10;99.90
37518;DHT22;23366;52.498;13.446;2023-04-01T16:56:47;6.10;99.90
37518;DHT22;23366;52.498;13.446;2023-04-01T16:59:36;6.00;99.90
37518;DHT22;23366;52.498;13.446;2023-04-01T17:04:43;6.00;99.90
37518;DHT22;23366;52.498;13.446;2023-04-01T17:07:21;6.00;99.90
37518;DHT22;23366;52.498;13.446;2023-04-01T17:10:16;6.00;99.90
37518;DHT22;23366;52.498;13.446;2023-04-01T17:18:43;5.90;99.90
37518;DHT22;23366;52.498;13.446;2023-04-01T17:21:25;5.90;99.90
37518;DHT22;23366;52.498;13.446;2023-04-01T17:24:05;5.80;99.90
37518;DHT22;23366;52.498;13.446;2023-04-01T17:32:41;5.80;99.90
37518;DHT22;23366;52.498;13.446;2023-04-01T17:35:19;5.70;99.90
37518;DHT22;23366;52.498;13.446;2023-04-01T17:38:27;5.60;99.90
37518;DHT22;23366;52.498;13.446;2023-04-01T17:44:17;5.70;99.90
37518;DHT22;23366;52.498;13.446;2023-04-01T17:49:23;5.60;99.90
37518;DHT22;23366;52.498;13.446;2023-04-01T17:54:28;5.50;99.90
37518;DHT22;23366;52.498;13.446;2023-04-01T17:57:30;5.50;99.90
37518;DHT22;23366;52.498;13.446;2023-04-01T18:00:23;5.50;99.90
37518;DHT22;23366;52.498;13.446;2023-04-01T18:03:11;5.40;99.90
37518;DHT22;23366;52.498;13.446;2023-04-01T18:08:58;5.30;99.90
37518;DHT22;23366;52.498;13.446;2023-04-01T18:14:13;5.20;99.90
37518;DHT22;23366;52.498;13.446;2023-04-01T18:16:51;5.20;99.90
37518;DHT22;23366;52.498;13.446;2023-04-01T18:24:45;5.20;99.90
37518;DHT22;23366;52.498;13.446;2023-04-01T18:27:24;5.10;99.90
37518;DHT22;23366;52.498;13.446;2023-04-01T18:35:29;5.10;99.90
37518;DHT22;23366;52.498;13.446;2023-04-01T18:37:58;5.10;99.90
37518;DHT22;23366;52.498;13.446;2023-04-01T18:40:32;5.10;99.90
37518;DHT22;23366;52.498;13.446;2023-04-01T18:45:33;5.10;99.90
37518;DHT22;23366;52.498;13.446;2023-04-01T18:48:15;5.00;99.90
37518;DHT22;23366;52.498;13.446;2023-04-01T18:50:56;5.00;99.90
37518;DHT22;23366;52.498;13.446;2023-04-01T18:53:41;5.10;99.90
37518;DHT22;23366;52.498;13.446;2023-04-01T18:56:12;5.00;99.90
37518;DHT22;23366;52.498;13.446;2023-04-01T18:58:54;5.10;99.90
37518;DHT22;23366;52.498;13.446;2023-04-01T19:01:42;5.00;99.90
37518;DHT22;23366;52.498;13.446;2023-04-01T19:04:24;5.00;99.90
37518;DHT22;23366;52.498;13.446;2023-04-01T19:06:55;4.90;99.90
37518;DHT22;23366;52.498;13.446;2023-04-01T19:09:23;4.90;99.90
37518;DHT22;23366;52.498;13.446;2023-04-01T19:14:51;4.90;99.90
37518;DHT22;23366;52.498;13.446;2023-04-01T19:17:25;4.90;99.90
37518;DHT22;23366;52.498;13.446;2023-04-01T19:20:13;4.80;99.90
37518;DHT22;23366;52.498;13.446;2023-04-01T19:25:54;4.80;99.90
37518;DHT22;23366;52.498;13.446;2023-04-01T19:28:56;4.80;99.90
37518;DHT22;23366;52.498;13.446;2023-04-01T19:31:41;4.80;99.90
37518;DHT22;23366;52.498;13.446;2023-04-01T19:34:29;4.70;99.90
37518;DHT22;23366;52.498;13.446;2023-04-01T19:40:08;4.70;99.90
37518;DHT22;23366;52.498;13.446;2023-04-01T19:43:03;4.70;99.90
37518;DHT22;23366;52.498;13.446;2023-04-01T19:45:42;4.80;99.90
37518;DHT22;23366;52.498;13.446;2023-04-01T19:51:40;4.70;99.90
37518;DHT22;23366;52.498;13.446;2023-04-01T19:56:49;4.70;99.90
37518;DHT22;23366;52.498;13.446;2023-04-01T20:04:51;4.70;99.90
37518;DHT22;23366;52.498;13.446;2023-04-01T20:07:31;4.60;99.90
37518;DHT22;23366;52.498;13.446;2023-04-01T20:10:10;4.50;99.90
37518;DHT22;23366;52.498;13.446;2023-04-01T20:12:42;4.50;99.90
37518;DHT22;23366;52.498;13.446;2023-04-01T20:15:36;4.50;99.90
37518;DHT22;23366;52.498;13.446;2023-04-01T20:18:12;4.50;99.90
37518;DHT22;23366;52.498;13.446;2023-04-01T20:20:39;4.40;99.90
37518;DHT22;23366;52.498;13.446;2023-04-01T20:23:21;4.40;99.90
37518;DHT22;23366;52.498;13.446;2023-04-01T20:25:53;4.40;99.90
37518;DHT22;23366;52.498;13.446;2023-04-01T20:34:30;4.30;99.90
37518;DHT22;23366;52.498;13.446;2023-04-01T20:37:00;4.20;99.90
37518;DHT22;23366;52.498;13.446;2023-04-01T20:42:27;4.20;99.90
37518;DHT22;23366;52.498;13.446;2023-04-01T20:45:28;4.20;99.90
37518;DHT22;23366;52.498;13.446;2023-04-01T20:48:11;4.20;99.90
37518;DHT22;23366;52.498;13.446;2023-04-01T20:50:53;4.10;99.90
37518;DHT22;23366;52.498;13.446;2023-04-01T20:53:36;4.10;99.90
37518;DHT22;23366;52.498;13.446;2023-04-01T20:58:56;4.00;99.90
37518;DHT22;23366;52.498;13.446;2023-04-01T21:01:40;4.00;99.90
37518;DHT22;23366;52.498;13.446;2023-04-01T21:04:24;3.90;99.90
37518;DHT22;23366;52.498;13.446;2023-04-01T21:09:52;3.90;99.90
37518;DHT22;23366;52.498;13.446;2023-04-01T21:15:42;3.90;99.90
37518;DHT22;23366;52.498;13.446;2023-04-01T21:18:45;3.80;99.90
37518;DHT22;23366;52.498;13.446;2023-04-01T21:27:17;3.80;99.90
37518;DHT22;23366;52.498;13.446;2023-04-01T21:30:02;3.70;99.90
37518;DHT22;23366;52.498;13.446;2023-04-01T21:32:45;3.80;99.90
37518;DHT22;23366;52.498;13.446;2023-04-01T21:35:23;3.80;99.90
37518;DHT22;23366;52.498;13.446;2023-04-01T21:38:22;3.70;99.90
37518;DHT22;23366;52.498;13.446;2023-04-01T21:43:59;3.70;99.90
37518;DHT22;23366;52.498;13.446;2023-04-01T21:46:41;3.70;99.90
37518;DHT22;23366;52.498;13.446;2023-04-01T21:55:31;3.60;99.90
37518;DHT22;23366;52.498;13.446;2023-04-01T22:06:06;3.60;99.90
37518;DHT22;23366;52.498;13.446;2023-04-01T22:09:07;3.50;99.90
37518;DHT22;23366;52.498;13.446;2023-04-01T22:11:49;3.50;99.90
37518;DHT22;23366;52.498;13.446;2023-04-01T22:14:33;3.50;99.90
37518;DHT22;23366;52.498;13.446;2023-04-01T22:17:11;3.50;99.90
37518;DHT22;23366;52.498;13.446;2023-04-01T22:19:59;3.60;99.90
37518;DHT22;23366;52.498;13.446;2023-04-01T22:23:00;3.60;99.90
37518;DHT22;23366;52.498;13.446;2023-04-01T22:25:48;3.60;99.90
37518;DHT22;23366;52.498;13.446;2023-04-01T22:28:26;3.50;99.90
37518;DHT22;23366;52.498;13.446;2023-04-01T22:30:59;3.50;99.90
37518;DHT22;23366;52.498;13.446;2023-04-01T22:33:42;3.50;99.90
37518;DHT22;23366;52.498;13.446;2023-04-01T22:39:10;3.50;99.90
37518;DHT22;23366;52.498;13.446;2023-04-01T22:41:52;3.50;99.90
37518;DHT22;23366;52.498;13.446;2023-04-01T22:47:10;3.50;99.90
37518;DHT22;23366;52.498;13.446;2023-04-01T22:49:50;3.50;99.90
37518;DHT22;23366;52.498;13.446;2023-04-01T22:52:35;3.50;99.90
37518;DHT22;23366;52.498;13.446;2023-04-01T22:55:24;3.50;99.90
37518;DHT22;23366;52.498;13.446;2023-04-01T22:57:57;3.50;99.90
37518;DHT22;23366;52.498;13.446;2023-04-01T23:00:45;3.50;99.90
37518;DHT22;23366;52.498;13.446;2023-04-01T23:03:30;3.50;99.90
37518;DHT22;23366;52.498;13.446;2023-04-01T23:06:04;3.50;99.90